Home   Weather   Sweden   Örebro   Past weeks
Flag for Sweden

Past Weather in Örebro, Sweden — Yesterday and Last 2 Weeks

Currently: 41 °F. Quite cool. (Weather station: Orebro Private, Sweden). See more current weather

Past Weather in Örebro — Graph

°F

Örebro Temperature Yesterday

Maximum temperature yesterday: 63 °F (at 5:20 pm)
Minimum temperature yesterday: 43 °F (at 11:50 pm)
Average temperature yesterday: 52 °F

High & Low Weather Summary for the Past Weeks

 TemperatureHumidityPressure
High64 °F (May 6, 1:20 pm)94% (May 7, 4:50 am)30.39 "Hg (May 7, 4:50 am)
Low30 °F (May 4, 4:20 am)18% (May 8, 4:50 pm)29.42 "Hg (May 12, 3:20 am)
Average52 °F57%29.93 "Hg
* Reported May 2 2:20 am — May 17 2:20 am, Örebro. Weather by CustomWeather, © 2022

Note: Actual official high and low records may vary slightly from our data, if they occured in-between our weather recording intervals... More about our weather records

Örebro Weather History for the Previous 24 Hours

Scroll right to see more
 ConditionsComfort  
Time TempWeatherWind HumidityBarometerVisibility
2:20 am
Tue, May 17
41 °FQuite cool.12 mph66%30.24 "HgN/A
1:50 am43 °FClear.14 mph61%30.21 "Hg10 mi
1:20 am41 °FClear.10 mph76%30.21 "Hg10 mi
12:50 am41 °FClear.7 mph81%30.21 "Hg10 mi
12:20 am41 °FClear.7 mph81%30.18 "Hg10 mi
11:50 pm
Mon, May 16
43 °FClear.5 mph66%30.18 "Hg10 mi
11:20 pm45 °FClear.5 mph57%30.18 "Hg10 mi
10:50 pm45 °FClear.2 mph61%30.18 "Hg10 mi
10:20 pm48 °FPassing clouds.3 mph54%30.18 "HgN/A
9:50 pm50 °FClear.6 mph50%30.18 "Hg10 mi
9:20 pm52 °FSunny.3 mph47%30.15 "Hg10 mi
8:50 pm55 °FSunny.3 mph38%30.15 "Hg10 mi
8:20 pm59 °FSunny.6 mph31%30.15 "Hg10 mi
7:50 pm61 °FPassing clouds.5 mph25%30.15 "HgN/A
7:20 pm61 °FSunny.8 mph25%30.15 "Hg10 mi
6:50 pm61 °FSunny.7 mph25%30.15 "Hg10 mi
6:20 pm61 °FPassing clouds.8 mph25%30.15 "HgN/A
5:50 pm61 °FSunny.8 mph27%30.15 "Hg10 mi
5:20 pm63 °FPassing clouds.7 mph27%30.15 "HgN/A
4:50 pm59 °FPassing clouds.5 mph27%30.15 "HgN/A
3:50 pm61 °FPassing clouds.7 mph25%30.18 "HgN/A
3:20 pm61 °FPassing clouds.7 mph27%30.18 "HgN/A
2:50 pm61 °FRefreshingly cool.7 mph27%30.18 "HgN/A
2:20 pm61 °FRefreshingly cool.9 mph25%30.18 "HgN/A
1:50 pm59 °FRefreshingly cool.7 mph27%30.18 "HgN/A
1:20 pm59 °FRefreshingly cool.8 mph27%30.18 "HgN/A
12:50 pm57 °FRefreshingly cool.7 mph27%30.18 "HgN/A
12:20 pm55 °FRefreshingly cool.7 mph31%30.21 "HgN/A
11:50 am55 °FRefreshingly cool.10 mph28%30.21 "HgN/A
11:20 am54 °FCool.8 mph33%30.21 "HgN/A
10:20 am52 °FCool.8 mph35%30.21 "HgN/A
9:20 am50 °FCool.7 mph40%30.21 "HgN/A
8:50 am48 °FPassing clouds.9 mph43%30.21 "HgN/A
8:20 am48 °FSunny.10 mph40%30.21 "Hg10 mi
7:50 am48 °FPassing clouds.10 mph43%30.21 "HgN/A
7:20 am46 °FSunny.12 mph46%30.21 "Hg10 mi
6:50 am46 °FSunny.9 mph50%30.21 "Hg10 mi
6:20 am45 °FSunny.10 mph53%30.21 "Hg10 mi
5:50 am45 °FSunny.9 mph53%30.18 "Hg10 mi
5:20 am45 °FSunny.8 mph57%30.18 "Hg10 mi
4:50 am45 °FSunny.8 mph57%30.18 "Hg10 mi
4:20 am45 °FClear.7 mph57%30.18 "Hg10 mi
3:50 am46 °FClear.6 mph50%30.18 "Hg10 mi
3:20 am46 °FPassing clouds.7 mph50%30.18 "HgN/A
Weather by CustomWeather, © 2022

See weather overview